Brownsville South Padre Island International Airport
KBRO : now visible

Airfield :











YOU CAN JOIN US ON...

 
LOGIN :

Register | Disclaimer

   EN    FR    IT 

 









Legend :    VFR   Marginal VFR   IFR   Intensive IFR   Very Intensive IFR
Visi :
Ceiling :
>= 8 km
>= 3000ft
5 to 8 km
1000 to 3000 ft
1500m to 5 km
500 to 1000 ft
800 to 1500m
200 to 500 ft
< 800m
< 200 ft
Symbols :   Thunderstorms  Fog  Heavy snow  Heavy precipitations  Wind > 20 kt






- Airport Elevation : 22 ft
- IATA code : BRO


KBRO - Brownsville South Padre Island International

CURRENT METAR :
  • 231353Z 11007KT 10SM FEW019 BKN032 OVC055 24/21 A3004 RMK AO2 RAB1259E24 SLP172 P0001 T02390211

EXPIRED METARs :
  • 231313Z 16004KT 6SM -RA BR SCT021 OVC028 23/21 A3004 RMK AO2 RAB1259 P0001 T02280206
  • 231253Z 09005KT 10SM FEW021 OVC029 23/21 A3004 RMK AO2 SLP170 T02280206
  • 231220Z 08004KT 10SM SCT021 OVC033 22/20 A3003 RMK AO2 T02220200
  • 231200Z 08006KT 10SM BKN021 OVC037 22/20 A3003 RMK AO2 T02220200
  • 231153Z 08006KT 10SM SCT021 OVC038 22/19 A3003 RMK AO2 SLP166 70074 T02220194 10222 20206 53002
  • 231053Z 08005KT 10SM OVC070 22/19 A3001 RMK AO2 SLP162 T02170194
  • 231006Z AUTO 10005KT 10SM SCT028 SCT043 OVC065 22/19 A3002 RMK AO2 T02170194

TAF KBRO
Valid from the 23 at 12:00 until the 24 at 12:00 UTC


231120Z 2312/2412 10006KT P6SM OVC050
FM231500 13010KT P6SM BKN019
FM231600 14011KT P6SM BKN022
FM240600 15010KT P6SM BKN014
KZHU FIR / North America



MET'MAP, your aeronautical weather chart ! - Copyright ORBIFLY December 2007 - Disclaimer

ORBIFLY MET'MAP TEAM :

Programming & Development : Alexandra Zaïnal
Original concept : Baudouin d'Aumeries
Technical & hardware support : Manuel Goepfert
Assistance : Marc-Olivier Méhu




SOURCES & CREDITS :

   NOAA       Earth
Advisory